createdAt,value
2022-10-09T00:01:03.378Z,97088.97
2022-10-09T00:03:31.047Z,97090.34
2022-10-09T00:05:58.978Z,97102.28
2022-10-09T00:08:27.157Z,97090.84
2022-10-09T00:10:55.988Z,97085.94
2022-10-09T00:13:23.893Z,97086.41
2022-10-09T00:15:52.802Z,97085.25
2022-10-09T00:18:20.323Z,97088.50
2022-10-09T00:20:48.324Z,97093.22
2022-10-09T00:23:17.448Z,97089.09
2022-10-09T00:25:52.693Z,97085.97
2022-10-09T00:28:20.595Z,97090.28
2022-10-09T00:30:48.232Z,97085.06
2022-10-09T00:33:17.618Z,97091.41
2022-10-09T00:35:45.193Z,97081.41
2022-10-09T00:38:13.250Z,97085.75
2022-10-09T00:40:41.200Z,97086.97
2022-10-09T00:43:15.601Z,97080.13
2022-10-09T00:45:48.798Z,97088.78
2022-10-09T00:48:19.433Z,97080.31
2022-10-09T00:50:52.723Z,97074.56
2022-10-09T00:53:23.113Z,97076.75
2022-10-09T00:55:52.336Z,97082.28
2022-10-09T00:58:20.645Z,97080.03
2022-10-09T01:00:48.536Z,97071.50
2022-10-09T01:03:17.477Z,97072.81
2022-10-09T01:05:54.300Z,97077.00
2022-10-09T01:08:29.128Z,97068.13
2022-10-09T01:11:02.545Z,97071.22
2022-10-09T01:13:37.582Z,97071.69
2022-10-09T01:16:11.813Z,97073.69
2022-10-09T01:18:48.264Z,97063.84
2022-10-09T01:21:20.821Z,97068.19
2022-10-09T01:23:58.427Z,97063.38
2022-10-09T01:26:36.769Z,97063.50
2022-10-09T01:29:09.120Z,97062.91
2022-10-09T01:31:41.751Z,97065.78
2022-10-09T01:34:11.509Z,97059.88
2022-10-09T01:36:40.692Z,97055.06
2022-10-09T01:39:10.969Z,97055.31
2022-10-09T01:41:39.043Z,97045.66
2022-10-09T01:44:18.079Z,97051.19
2022-10-09T01:46:46.147Z,97044.25
2022-10-09T01:49:26.130Z,97053.09
2022-10-09T01:52:00.039Z,97043.53
2022-10-09T01:54:35.797Z,97043.38
2022-10-09T01:57:07.823Z,97044.44
2022-10-09T01:59:40.560Z,97035.00
2022-10-09T02:02:08.838Z,97045.22
2022-10-09T02:04:39.787Z,97048.38
2022-10-09T02:07:07.494Z,97042.47
2022-10-09T02:09:36.373Z,97035.25
2022-10-09T02:12:08.740Z,97026.84
2022-10-09T02:14:39.368Z,97031.75
2022-10-09T02:17:10.235Z,97031.47
2022-10-09T02:19:42.707Z,97032.69
2022-10-09T02:22:15.916Z,97025.75
2022-10-09T02:24:44.545Z,97023.13
2022-10-09T02:27:13.072Z,97025.78
2022-10-09T02:29:43.305Z,97028.44
2022-10-09T02:32:11.747Z,97020.72
2022-10-09T02:34:39.326Z,97021.06
2022-10-09T02:37:08.038Z,97020.84
2022-10-09T02:39:35.652Z,97028.63
2022-10-09T02:42:03.313Z,97018.78
2022-10-09T02:44:30.851Z,97023.56
2022-10-09T02:46:59.720Z,97020.84
2022-10-09T02:49:27.284Z,97022.56
2022-10-09T02:51:54.971Z,97015.19
2022-10-09T02:54:22.496Z,97013.28
2022-10-09T02:56:50.012Z,97015.53
2022-10-09T02:59:17.645Z,97019.47
2022-10-09T03:01:45.267Z,97013.63
2022-10-09T03:04:14.432Z,97024.81
2022-10-09T03:06:41.972Z,97013.56
2022-10-09T03:09:09.484Z,97018.78
2022-10-09T03:11:36.995Z,97010.84
2022-10-09T03:14:04.559Z,97006.28
2022-10-09T03:16:32.168Z,97012.31
2022-10-09T03:19:00.084Z,97013.50
2022-10-09T03:21:29.819Z,97016.59
2022-10-09T03:23:57.454Z,97016.13
2022-10-09T03:26:26.847Z,97014.97
2022-10-09T03:28:56.169Z,97022.19
2022-10-09T03:31:51.143Z,97020.78
2022-10-09T03:34:14.208Z,97017.66
2022-10-09T03:36:43.440Z,97022.22
2022-10-09T03:39:11.202Z,97012.75
2022-10-09T03:41:38.724Z,97010.53
2022-10-09T03:44:06.422Z,97013.09
2022-10-09T03:46:34.055Z,97016.44
2022-10-09T03:49:01.625Z,97014.66
2022-10-09T03:51:29.136Z,97015.25
2022-10-09T03:53:58.336Z,97017.59
2022-10-09T03:56:25.865Z,97015.81
2022-10-09T03:58:53.382Z,97023.97
2022-10-09T04:01:21.118Z,97020.22
2022-10-09T04:03:48.944Z,97025.06
2022-10-09T04:06:16.707Z,97034.88
2022-10-09T04:08:44.260Z,97033.50
2022-10-09T04:11:13.149Z,97030.84
2022-10-09T04:13:40.733Z,97038.13
2022-10-09T04:16:12.539Z,97024.78
2022-10-09T04:18:40.513Z,97027.06
2022-10-09T04:21:08.332Z,97027.97
2022-10-09T04:23:35.906Z,97038.06
2022-10-09T04:26:03.431Z,97034.00
2022-10-09T04:28:33.622Z,97044.34
2022-10-09T04:31:01.413Z,97052.69
2022-10-09T04:33:29.081Z,97065.25
2022-10-09T04:35:57.211Z,97060.81
2022-10-09T04:38:25.701Z,97044.97
2022-10-09T04:40:56.887Z,97044.75
2022-10-09T04:43:24.587Z,97048.09
2022-10-09T04:45:53.533Z,97035.81
2022-10-09T04:48:21.149Z,97033.53
2022-10-09T04:50:49.031Z,97026.25
2022-10-09T04:53:16.677Z,97027.84
2022-10-09T04:55:45.337Z,97029.88
2022-10-09T04:58:13.824Z,97023.91
2022-10-09T05:00:42.657Z,97012.25
2022-10-09T05:03:12.003Z,97031.47
2022-10-09T05:05:39.997Z,97023.97
2022-10-09T05:08:07.603Z,97022.16
2022-10-09T05:10:35.221Z,97018.88
2022-10-09T05:13:02.768Z,97028.84
2022-10-09T05:15:30.288Z,97029.59
2022-10-09T05:17:58.156Z,97029.53
2022-10-09T05:20:27.044Z,97030.63
2022-10-09T05:22:54.749Z,97039.59
2022-10-09T05:25:22.277Z,97036.06
2022-10-09T05:27:49.799Z,97051.13
2022-10-09T05:30:17.386Z,97055.09
2022-10-09T05:32:44.887Z,97057.22
2022-10-09T05:35:12.475Z,97052.22
2022-10-09T05:37:41.343Z,97053.88
2022-10-09T05:40:09.995Z,97050.53
2022-10-09T05:42:37.665Z,97052.88
2022-10-09T05:45:05.399Z,97070.84
2022-10-09T05:47:32.950Z,97057.72
2022-10-09T05:50:00.489Z,97054.84
2022-10-09T05:52:28.009Z,97059.84
2022-10-09T05:54:57.177Z,97052.59
2022-10-09T05:57:24.715Z,97044.75
2022-10-09T05:59:52.265Z,97041.59
2022-10-09T06:02:19.794Z,97058.19
2022-10-09T06:04:47.339Z,97050.13
2022-10-09T06:07:14.868Z,97050.03
2022-10-09T06:09:42.492Z,97058.66
2022-10-09T06:12:11.365Z,97060.09
2022-10-09T06:14:38.877Z,97051.53
2022-10-09T06:17:06.532Z,97059.47
2022-10-09T06:19:34.080Z,97057.72
2022-10-09T06:22:01.586Z,97054.03
2022-10-09T06:24:29.700Z,97059.94
2022-10-09T06:26:57.805Z,97057.72
2022-10-09T06:29:26.777Z,97065.56
2022-10-09T06:31:54.557Z,97063.91
2022-10-09T06:34:22.209Z,97072.94
2022-10-09T06:36:49.887Z,97080.72
2022-10-09T06:39:17.512Z,97086.72
2022-10-09T06:41:45.139Z,97091.06
2022-10-09T06:44:17.161Z,97087.19
2022-10-09T06:46:49.302Z,97084.47
2022-10-09T06:49:16.825Z,97078.91
2022-10-09T06:51:44.335Z,97082.53
2022-10-09T06:54:13.965Z,97067.13
2022-10-09T06:56:41.611Z,97074.13
2022-10-09T06:59:09.737Z,97068.09
2022-10-09T07:01:37.296Z,97074.81
2022-10-09T07:04:08.222Z,97077.63
2022-10-09T07:06:39.840Z,97086.50
2022-10-09T07:09:09.295Z,97083.63
2022-10-09T07:11:39.133Z,97093.34
2022-10-09T07:14:08.254Z,97082.25
2022-10-09T07:16:37.576Z,97072.16
2022-10-09T07:19:08.410Z,97076.16
2022-10-09T07:21:36.300Z,97079.38
2022-10-09T07:24:05.489Z,97070.25
2022-10-09T07:26:35.009Z,97076.13
2022-10-09T07:29:03.295Z,97078.81
2022-10-09T07:31:30.806Z,97067.69
2022-10-09T07:33:58.389Z,97075.22
2022-10-09T07:36:27.841Z,97080.53
2022-10-09T07:38:57.400Z,97079.59
2022-10-09T07:41:26.819Z,97087.41
2022-10-09T07:43:54.695Z,97076.75
2022-10-09T07:46:23.865Z,97078.59
2022-10-09T07:48:51.598Z,97079.56
2022-10-09T07:51:21.174Z,97064.78
2022-10-09T07:53:50.471Z,97061.56
2022-10-09T07:56:19.736Z,97062.00
2022-10-09T07:58:50.059Z,97055.84
2022-10-09T08:01:20.279Z,97056.53
2022-10-09T08:03:48.703Z,97052.59
2022-10-09T08:06:16.328Z,97055.69
2022-10-09T08:08:44.498Z,97054.84
2022-10-09T08:11:16.296Z,97061.63
2022-10-09T08:13:45.164Z,97059.06
2022-10-09T08:16:12.966Z,97070.22
2022-10-09T08:18:40.483Z,97070.31
2022-10-09T08:21:10.085Z,97067.91
2022-10-09T08:23:37.775Z,97059.22
2022-10-09T08:26:06.395Z,97059.84
2022-10-09T08:28:35.432Z,97052.66
2022-10-09T08:31:11.085Z,97058.41
2022-10-09T08:33:38.589Z,97050.19
2022-10-09T08:36:07.862Z,97047.00
2022-10-09T08:38:47.117Z,97043.22
2022-10-09T08:41:25.854Z,97045.63
2022-10-09T08:44:02.185Z,97039.16
2022-10-09T08:46:34.392Z,97040.47
2022-10-09T08:49:05.309Z,97035.22
2022-10-09T08:51:39.501Z,97036.78
2022-10-09T08:54:20.264Z,97039.22
2022-10-09T08:56:48.644Z,97042.06
2022-10-09T08:59:17.524Z,97045.88
2022-10-09T09:01:51.165Z,97049.28
2022-10-09T09:04:39.696Z,97044.72
2022-10-09T09:07:17.395Z,97039.53
2022-10-09T09:09:54.072Z,97037.22
2022-10-09T09:12:28.396Z,97036.97
2022-10-09T09:15:18.711Z,97038.19
2022-10-09T09:17:55.157Z,97039.72
2022-10-09T09:20:26.546Z,97038.88
2022-10-09T09:22:54.338Z,97030.47
2022-10-09T09:25:24.933Z,97032.41
2022-10-09T09:27:53.880Z,97019.75
2022-10-09T09:30:28.799Z,97019.09
2022-10-09T09:33:05.539Z,97012.72
2022-10-09T09:35:38.744Z,97012.22
2022-10-09T09:38:06.277Z,97015.25
2022-10-09T09:40:37.301Z,97009.56
2022-10-09T09:43:12.998Z,96998.06
2022-10-09T09:45:43.735Z,96998.31
2022-10-09T09:48:15.972Z,96987.69
2022-10-09T09:50:53.079Z,96990.31
2022-10-09T09:53:36.797Z,96987.00
2022-10-09T09:56:05.442Z,96989.13
2022-10-09T09:58:36.364Z,96982.78
2022-10-09T10:01:07.591Z,96979.25
2022-10-09T10:03:36.743Z,96981.72
2022-10-09T10:06:04.817Z,96979.50
2022-10-09T10:08:34.484Z,96985.84
2022-10-09T10:11:06.095Z,96980.50
2022-10-09T10:13:37.952Z,96976.69
2022-10-09T10:16:09.269Z,96982.59
2022-10-09T10:18:40.281Z,96975.56
2022-10-09T10:21:12.272Z,96974.34
2022-10-09T10:23:43.563Z,96970.50
2022-10-09T10:26:27.995Z,96964.09
2022-10-09T10:29:02.370Z,96965.88
2022-10-09T10:31:39.668Z,96958.78
2022-10-09T10:34:15.181Z,96956.13
2022-10-09T10:36:42.853Z,96952.91
2022-10-09T10:39:19.852Z,96949.84
2022-10-09T10:41:52.275Z,96942.91
2022-10-09T10:44:24.372Z,96945.38
2022-10-09T10:46:59.974Z,96944.34
2022-10-09T10:49:32.894Z,96944.09
2022-10-09T10:52:15.501Z,96944.38
2022-10-09T10:54:51.149Z,96939.38
2022-10-09T10:57:25.064Z,96939.28
2022-10-09T11:00:03.826Z,96936.22
2022-10-09T11:03:03.493Z,96931.03
2022-10-09T11:05:40.204Z,96932.38
2022-10-09T11:08:22.280Z,96926.69
2022-10-09T11:11:00.519Z,96927.81
2022-10-09T11:13:33.178Z,96924.69
2022-10-09T11:16:17.241Z,96914.44
2022-10-09T11:19:04.642Z,96914.53
2022-10-09T11:21:51.986Z,96906.63
2022-10-09T11:24:33.503Z,96903.78
2022-10-09T11:27:11.682Z,96898.66
2022-10-09T11:29:44.948Z,96903.44
2022-10-09T11:32:16.480Z,96892.84
2022-10-09T11:34:49.542Z,96893.03
2022-10-09T11:37:21.989Z,96891.16
2022-10-09T11:39:49.478Z,96884.41
2022-10-09T11:42:22.365Z,96882.63
2022-10-09T11:45:02.008Z,96886.81
2022-10-09T11:47:36.024Z,96875.53
2022-10-09T11:50:32.766Z,96879.47
2022-10-09T11:53:05.851Z,96868.88
2022-10-09T11:55:34.861Z,96862.69
2022-10-09T11:58:14.816Z,96858.78
2022-10-09T12:00:43.508Z,96861.88
2022-10-09T12:03:25.465Z,96858.81
2022-10-09T12:06:04.484Z,96855.88
2022-10-09T12:08:32.160Z,96857.53
2022-10-09T12:11:08.142Z,96850.88
2022-10-09T12:13:48.945Z,96850.84
2022-10-09T12:16:47.114Z,96842.56
2022-10-09T12:19:19.610Z,96835.84
2022-10-09T12:21:52.666Z,96830.56
2022-10-09T12:24:23.996Z,96833.75
2022-10-09T12:26:54.097Z,96830.59
2022-10-09T12:29:28.275Z,96829.91
2022-10-09T12:31:59.950Z,96822.06
2022-10-09T12:34:30.945Z,96821.19
2022-10-09T12:37:11.248Z,96824.91
2022-10-09T12:39:39.071Z,96819.06
2022-10-09T12:42:09.065Z,96822.25
2022-10-09T12:44:40.363Z,96815.63
2022-10-09T12:47:14.060Z,96813.25
2022-10-09T12:49:41.732Z,96808.19
2022-10-09T12:52:16.821Z,96808.47
2022-10-09T12:54:45.616Z,96800.09
2022-10-09T12:57:16.437Z,96796.94
2022-10-09T12:59:45.316Z,96789.09
2022-10-09T13:02:16.179Z,96785.69
2022-10-09T13:04:56.355Z,96771.63
2022-10-09T13:07:27.927Z,96774.66
2022-10-09T13:10:06.159Z,96781.63
2022-10-09T13:12:35.536Z,96781.03
2022-10-09T13:15:05.487Z,96779.94
2022-10-09T13:17:35.263Z,96771.13
2022-10-09T13:20:05.565Z,96773.78
2022-10-09T13:22:35.980Z,96772.94
2022-10-09T13:25:04.524Z,96762.72
2022-10-09T13:27:34.928Z,96763.91
2022-10-09T13:30:02.534Z,96761.25
2022-10-09T13:32:30.912Z,96765.97
2022-10-09T13:34:58.428Z,96748.25
2022-10-09T13:37:27.276Z,96749.69
2022-10-09T13:39:58.127Z,96753.88
2022-10-09T13:42:28.139Z,96759.31
2022-10-09T13:44:55.707Z,96752.41
2022-10-09T13:47:24.642Z,96753.16
2022-10-09T13:49:52.742Z,96754.66
2022-10-09T13:52:20.304Z,96740.31
2022-10-09T13:54:47.831Z,96736.09
2022-10-09T13:57:16.693Z,96738.78
2022-10-09T13:59:44.357Z,96733.75
2022-10-09T14:02:12.627Z,96737.25
2022-10-09T14:04:40.306Z,96737.19
2022-10-09T14:07:07.883Z,96734.69
2022-10-09T14:09:35.404Z,96732.56
2022-10-09T14:12:02.979Z,96735.28
2022-10-09T14:14:31.857Z,96721.34
2022-10-09T14:16:59.343Z,96718.66
2022-10-09T14:19:28.019Z,96719.03
2022-10-09T14:21:55.834Z,96722.72
2022-10-09T14:24:23.606Z,96718.06
2022-10-09T14:26:51.855Z,96720.84
2022-10-09T14:29:19.524Z,96722.78
2022-10-09T14:31:50.854Z,96717.09
2022-10-09T14:34:18.691Z,96719.13
2022-10-09T14:36:46.427Z,96715.69
2022-10-09T14:39:13.982Z,96709.75
2022-10-09T14:41:41.749Z,96708.88
2022-10-09T14:44:10.934Z,96702.97
2022-10-09T14:46:39.250Z,96700.69
2022-10-09T14:49:09.055Z,96700.22
2022-10-09T14:51:38.134Z,96698.00
2022-10-09T14:54:07.328Z,96696.63
2022-10-09T14:56:35.558Z,96685.72
2022-10-09T14:59:03.420Z,96691.78
2022-10-09T15:01:31.153Z,96687.75
2022-10-09T15:04:00.497Z,96676.03
2022-10-09T15:06:29.906Z,96677.22
2022-10-09T15:09:04.632Z,96672.63
2022-10-09T15:11:34.379Z,96672.44
2022-10-09T15:14:01.908Z,96668.75
2022-10-09T15:16:29.420Z,96669.38
2022-10-09T15:18:57.387Z,96666.13
2022-10-09T15:21:27.065Z,96668.97
2022-10-09T15:23:57.089Z,96670.03
2022-10-09T15:26:26.537Z,96669.75
2022-10-09T15:28:54.107Z,96674.78
2022-10-09T15:31:25.059Z,96667.00
2022-10-09T15:33:53.839Z,96659.00
2022-10-09T15:36:22.276Z,96660.63
2022-10-09T15:38:50.099Z,96653.16
2022-10-09T15:41:23.393Z,96649.06
2022-10-09T15:43:51.419Z,96649.31
2022-10-09T15:46:19.157Z,96650.72
2022-10-09T15:48:46.898Z,96646.88
2022-10-09T15:51:14.611Z,96642.53
2022-10-09T15:53:43.418Z,96639.25
2022-10-09T15:56:13.628Z,96638.22
2022-10-09T15:58:42.710Z,96638.97
2022-10-09T16:01:12.150Z,96637.44
2022-10-09T16:03:40.724Z,96617.53
2022-10-09T16:06:10.891Z,96624.38
2022-10-09T16:08:40.007Z,96621.28
2022-10-09T16:13:45.999Z,96612.91
2022-10-09T16:16:16.514Z,96611.44
2022-10-09T16:18:44.324Z,96617.28
2022-10-09T16:21:13.911Z,96602.69
2022-10-09T16:23:41.517Z,96613.09
2022-10-09T16:26:09.401Z,96601.88
2022-10-09T16:28:37.710Z,96599.91
2022-10-09T16:31:07.179Z,96605.94
2022-10-09T16:33:34.704Z,96602.25
2022-10-09T16:36:09.367Z,96599.25
2022-10-09T16:38:37.039Z,96591.28
2022-10-09T16:41:08.860Z,96606.09
2022-10-09T16:43:37.396Z,96598.91
2022-10-09T16:46:12.512Z,96598.25
2022-10-09T16:48:40.044Z,96598.56
2022-10-09T16:51:12.243Z,96596.22
2022-10-09T16:53:40.189Z,96592.19
2022-10-09T16:56:10.125Z,96610.13
2022-10-09T16:58:37.992Z,96602.50
2022-10-09T17:01:09.826Z,96609.16
2022-10-09T17:03:41.231Z,96608.66
2022-10-09T17:06:10.421Z,96601.84
2022-10-09T17:08:38.255Z,96604.69
2022-10-09T17:11:08.140Z,96602.03
2022-10-09T17:13:35.741Z,96604.13
2022-10-09T17:16:06.038Z,96607.63
2022-10-09T17:18:33.704Z,96600.34
2022-10-09T17:21:03.827Z,96606.00
2022-10-09T17:23:31.631Z,96598.03
2022-10-09T17:25:59.268Z,96593.50
2022-10-09T17:28:26.896Z,96599.66
2022-10-09T17:30:54.432Z,96591.97
2022-10-09T17:33:21.939Z,96605.09
2022-10-09T17:35:49.471Z,96600.88
2022-10-09T17:38:18.327Z,96601.53
2022-10-09T17:40:45.872Z,96603.84
2022-10-09T17:43:13.357Z,96593.38
2022-10-09T17:45:42.689Z,96598.25
2022-10-09T17:48:10.927Z,96591.78
2022-10-09T17:50:38.495Z,96602.53
2022-10-09T17:53:06.276Z,96591.22
2022-10-09T17:55:38.383Z,96601.88
2022-10-09T17:58:05.903Z,96594.22
2022-10-09T18:00:33.453Z,96598.41
2022-10-09T18:03:00.965Z,96595.06
2022-10-09T18:05:28.487Z,96592.09
2022-10-09T18:07:56.029Z,96591.97
2022-10-09T18:10:23.841Z,96595.41
2022-10-09T18:12:52.711Z,96583.31
2022-10-09T18:15:20.264Z,96578.22
2022-10-09T18:17:48.048Z,96572.97
2022-10-09T18:20:15.859Z,96580.13
2022-10-09T18:22:43.488Z,96573.13
2022-10-09T18:25:11.050Z,96571.16
2022-10-09T18:27:38.560Z,96568.66
2022-10-09T18:30:08.706Z,96570.88
2022-10-09T18:32:36.203Z,96566.03
2022-10-09T18:35:03.923Z,96569.06
2022-10-09T18:37:31.433Z,96559.78
2022-10-09T18:39:58.957Z,96555.13
2022-10-09T18:42:26.499Z,96554.03
2022-10-09T18:44:54.065Z,96551.84
2022-10-09T18:47:28.283Z,96549.41
2022-10-09T18:49:57.852Z,96552.75
2022-10-09T18:52:26.134Z,96545.59
2022-10-09T18:54:55.629Z,96549.38
2022-10-09T18:57:25.970Z,96540.66
2022-10-09T18:59:55.372Z,96541.34
2022-10-09T19:02:26.773Z,96539.41
2022-10-09T19:04:54.551Z,96541.34
2022-10-09T19:07:22.079Z,96545.53
2022-10-09T19:09:53.528Z,96541.69
2022-10-09T19:12:22.562Z,96537.72
2022-10-09T19:14:50.106Z,96535.53
2022-10-09T19:17:17.641Z,96535.75
2022-10-09T19:19:46.661Z,96531.41
2022-10-09T19:22:16.601Z,96528.56
2022-10-09T19:24:45.774Z,96531.59
2022-10-09T19:27:13.613Z,96529.09
2022-10-09T19:29:41.154Z,96529.03
2022-10-09T19:32:08.704Z,96530.84
2022-10-09T19:34:36.252Z,96526.34
2022-10-09T19:39:37.915Z,96530.03
2022-10-09T19:42:05.512Z,96526.88
2022-10-09T19:44:33.023Z,96531.84
2022-10-09T19:47:00.603Z,96523.69
2022-10-09T19:49:31.503Z,96515.44
2022-10-09T19:51:59.073Z,96517.25
2022-10-09T19:54:28.056Z,96525.38
2022-10-09T19:56:55.564Z,96523.03
2022-10-09T19:59:23.078Z,96522.38
2022-10-09T20:01:55.160Z,96523.41
2022-10-09T20:04:24.811Z,96522.41
2022-10-09T20:06:52.409Z,96509.91
2022-10-09T20:09:20.717Z,96518.09
2022-10-09T20:11:49.637Z,96514.78
2022-10-09T20:14:17.195Z,96512.09
2022-10-09T20:16:44.888Z,96516.78
2022-10-09T20:19:12.751Z,96512.13
2022-10-09T20:21:40.419Z,96507.13
2022-10-09T20:24:08.310Z,96510.13
2022-10-09T20:26:38.674Z,96504.66
2022-10-09T20:29:11.330Z,96505.97
2022-10-09T20:31:39.611Z,96505.13
2022-10-09T20:34:07.255Z,96514.06
2022-10-09T20:36:36.956Z,96512.09
2022-10-09T20:39:07.835Z,96508.69
2022-10-09T20:41:35.943Z,96510.69
2022-10-09T20:44:04.764Z,96497.78
2022-10-09T20:46:36.145Z,96504.28
2022-10-09T20:49:05.303Z,96501.44
2022-10-09T20:51:35.115Z,96504.44
2022-10-09T20:54:03.220Z,96495.97
2022-10-09T20:56:32.517Z,96495.94
2022-10-09T20:59:01.305Z,96501.75
2022-10-09T21:01:29.559Z,96498.63
2022-10-09T21:03:59.439Z,96495.28
2022-10-09T21:06:27.788Z,96492.47
2022-10-09T21:08:55.907Z,96497.94
2022-10-09T21:11:24.146Z,96494.81
2022-10-09T21:13:52.209Z,96489.97
2022-10-09T21:16:22.428Z,96488.81
2022-10-09T21:18:54.547Z,96496.31
2022-10-09T21:21:23.431Z,96485.19
2022-10-09T21:23:51.986Z,96485.97
2022-10-09T21:26:21.284Z,96481.63
2022-10-09T21:28:48.845Z,96479.34
2022-10-09T21:31:18.772Z,96482.34
2022-10-09T21:33:46.728Z,96483.53
2022-10-09T21:36:22.607Z,96479.19
2022-10-09T21:38:51.472Z,96481.69
2022-10-09T21:41:19.020Z,96471.38
2022-10-09T21:43:46.599Z,96475.22
2022-10-09T21:46:14.136Z,96472.88
2022-10-09T21:48:41.684Z,96471.56
2022-10-09T21:51:09.283Z,96470.38
2022-10-09T21:53:36.800Z,96459.88
2022-10-09T21:56:06.859Z,96461.22
2022-10-09T21:58:34.418Z,96467.22
2022-10-09T22:01:03.595Z,96461.22
2022-10-09T22:03:34.098Z,96459.88
2022-10-09T22:06:05.699Z,96458.56
2022-10-09T22:08:33.305Z,96460.88
2022-10-09T22:11:00.883Z,96460.06
2022-10-09T22:13:29.753Z,96460.56
2022-10-09T22:15:57.316Z,96453.56
2022-10-09T22:18:24.847Z,96454.06
2022-10-09T22:20:52.542Z,96456.56
2022-10-09T22:23:21.433Z,96461.88
2022-10-09T22:25:57.041Z,96457.94
2022-10-09T22:28:25.014Z,96464.59
2022-10-09T22:31:06.213Z,96458.25
2022-10-09T22:33:34.133Z,96452.59
2022-10-09T22:36:06.947Z,96454.75
2022-10-09T22:38:35.208Z,96455.56
2022-10-09T22:41:04.753Z,96447.25
2022-10-09T22:43:32.279Z,96446.28
2022-10-09T22:45:59.892Z,96442.09
2022-10-09T22:48:28.745Z,96443.06
2022-10-09T22:50:56.269Z,96434.09
2022-10-09T22:53:23.930Z,96439.59
2022-10-09T22:55:51.492Z,96435.09
2022-10-09T22:58:18.985Z,96442.22
2022-10-09T23:00:46.532Z,96443.38
2022-10-09T23:03:14.119Z,96440.38
2022-10-09T23:05:42.969Z,96446.06
2022-10-09T23:08:10.511Z,96438.25
2022-10-09T23:10:38.468Z,96443.78
2022-10-09T23:13:06.241Z,96446.56
2022-10-09T23:15:35.580Z,96452.16
2022-10-09T23:18:03.645Z,96445.22
2022-10-09T23:20:31.556Z,96438.00
2022-10-09T23:23:00.440Z,96445.47
2022-10-09T23:25:27.960Z,96441.31
2022-10-09T23:27:55.473Z,96434.66
2022-10-09T23:30:22.980Z,96434.00
2022-10-09T23:32:52.989Z,96427.34
2022-10-09T23:35:20.587Z,96430.31
2022-10-09T23:37:48.113Z,96435.25
2022-10-09T23:40:17.094Z,96421.84
2022-10-09T23:42:44.596Z,96426.31
2022-10-09T23:45:12.451Z,96430.66
2022-10-09T23:47:41.270Z,96428.34
2022-10-09T23:50:09.090Z,96427.31
2022-10-09T23:52:36.612Z,96424.34
2022-10-09T23:55:04.270Z,96428.50
2022-10-09T23:57:34.740Z,96426.34
